createdAt,value
2019-02-11T00:03:38.033Z,80.08
2019-02-11T00:06:07.645Z,80.41
2019-02-11T00:08:59.633Z,80.74
2019-02-11T00:11:08.286Z,80.91
2019-02-11T00:13:37.713Z,81.03
2019-02-11T00:16:07.123Z,81.13
2019-02-11T00:18:36.718Z,81.08
2019-02-11T00:21:06.280Z,81.17
2019-02-11T00:23:35.696Z,81.18
2019-02-11T00:26:24.406Z,80.80
2019-02-11T00:28:54.071Z,80.80
2019-02-11T00:31:23.791Z,81.06
2019-02-11T00:36:29.528Z,81.30
2019-02-11T00:38:59.002Z,81.32
2019-02-11T00:41:28.417Z,81.64
2019-02-11T00:43:57.843Z,81.26
2019-02-11T00:46:27.297Z,80.94
2019-02-11T00:49:16.991Z,81.61
2019-02-11T00:51:46.687Z,81.61
2019-02-11T00:54:16.110Z,80.91
2019-02-11T00:56:45.580Z,80.91
2019-02-11T00:59:15.315Z,80.86
2019-02-11T01:01:46.516Z,80.77
2019-02-11T01:04:27.376Z,80.72
2019-02-11T01:06:57.000Z,80.93
2019-02-11T01:09:31.457Z,80.97
2019-02-11T01:12:00.925Z,81.19
2019-02-11T01:14:30.447Z,81.43
2019-02-11T01:17:00.075Z,81.42
2019-02-11T01:19:29.489Z,81.63
2019-02-11T01:22:08.488Z,81.70
2019-02-11T01:24:37.959Z,81.61
2019-02-11T01:27:07.407Z,81.90
2019-02-11T01:29:36.889Z,81.90
2019-02-11T01:32:06.340Z,81.99
2019-02-11T01:34:54.819Z,82.12
2019-02-11T01:40:10.077Z,82.06
2019-02-11T01:48:08.886Z,82.06
2019-02-11T01:53:55.409Z,82.39
2019-02-11T01:59:06.084Z,82.68
2019-02-11T02:01:35.576Z,82.43
2019-02-11T02:04:04.996Z,82.80
2019-02-11T02:09:11.206Z,82.53
2019-02-11T02:11:52.639Z,82.90
2019-02-11T02:14:22.354Z,82.79
2019-02-11T02:16:51.863Z,82.79
2019-02-11T02:19:40.288Z,82.84
2019-02-11T02:22:09.798Z,83.10
2019-02-11T02:24:39.221Z,83.11
2019-02-11T02:27:08.667Z,83.27
2019-02-11T02:29:38.066Z,83.57
2019-02-11T02:32:07.487Z,83.57
2019-02-11T02:40:25.745Z,83.88
2019-02-11T02:42:55.159Z,83.90
2019-02-11T02:45:24.591Z,83.71
2019-02-11T02:47:54.017Z,83.58
2019-02-11T02:56:04.880Z,83.72
2019-02-11T02:58:34.290Z,83.61
2019-02-11T03:01:04.527Z,83.79
2019-02-11T03:03:33.991Z,83.84
2019-02-11T03:06:04.585Z,83.86
2019-02-11T03:08:33.983Z,83.52
2019-02-11T03:11:12.266Z,83.31
2019-02-11T03:13:53.015Z,83.53
2019-02-11T03:16:22.521Z,83.39
2019-02-11T03:18:51.994Z,83.16
2019-02-11T03:21:40.421Z,83.25
2019-02-11T03:24:09.879Z,82.95
2019-02-11T03:27:02.138Z,83.27
2019-02-11T03:29:31.802Z,83.32
2019-02-11T03:32:01.239Z,83.45
2019-02-11T03:34:30.767Z,83.51
2019-02-11T03:37:00.236Z,83.60
2019-02-11T03:39:29.692Z,83.63
2019-02-11T03:42:18.409Z,83.68
2019-02-11T03:47:42.028Z,83.31
2019-02-11T03:50:31.868Z,83.95
2019-02-11T03:53:01.541Z,83.95
2019-02-11T03:55:31.132Z,84.04
2019-02-11T03:58:00.513Z,84.28
2019-02-11T04:00:29.990Z,84.28
2019-02-11T04:02:59.596Z,84.10
2019-02-11T04:05:29.000Z,84.55
2019-02-11T04:10:33.443Z,84.90
2019-02-11T04:13:34.090Z,85.18
2019-02-11T04:15:59.418Z,85.18
2019-02-11T04:18:28.886Z,85.27
2019-02-11T04:20:58.394Z,85.45
2019-02-11T04:23:27.918Z,85.48
2019-02-11T04:26:16.383Z,85.31
2019-02-11T04:32:03.922Z,85.51
2019-02-11T04:34:33.338Z,85.51
2019-02-11T04:37:22.034Z,85.57
2019-02-11T04:39:51.765Z,85.57
2019-02-11T04:42:23.958Z,85.60
2019-02-11T04:45:12.436Z,85.08
2019-02-11T04:47:41.956Z,85.08
2019-02-11T04:50:11.499Z,85.03
2019-02-11T04:52:59.966Z,85.48
2019-02-11T04:55:29.951Z,85.48
2019-02-11T04:58:18.726Z,85.22
2019-02-11T05:00:48.828Z,85.22
2019-02-11T05:06:08.329Z,85.70
2019-02-11T05:08:56.585Z,85.33
2019-02-11T05:11:26.266Z,85.32
2019-02-11T05:13:55.770Z,85.05
2019-02-11T05:16:44.270Z,84.97
2019-02-11T05:19:13.780Z,84.97
2019-02-11T05:21:43.360Z,84.62
2019-02-11T05:24:12.984Z,84.62
2019-02-11T05:26:42.400Z,84.65
2019-02-11T05:29:11.979Z,84.68
2019-02-11T05:31:41.515Z,84.69
2019-02-11T05:34:11.026Z,84.58
2019-02-11T05:36:40.483Z,84.58
2019-02-11T05:39:09.904Z,84.22
2019-02-11T05:41:39.337Z,84.35
2019-02-11T05:44:08.776Z,84.67
2019-02-11T05:46:38.261Z,85.17
2019-02-11T05:49:07.689Z,85.84
2019-02-11T05:51:37.100Z,86.28
2019-02-11T05:54:06.575Z,86.66
2019-02-11T05:56:54.969Z,86.58
2019-02-11T05:59:43.368Z,86.62
2019-02-11T06:05:03.429Z,87.39
2019-02-11T06:07:32.888Z,87.55
2019-02-11T06:10:02.362Z,87.55
2019-02-11T06:12:55.259Z,87.53
2019-02-11T06:15:43.534Z,87.47
2019-02-11T06:20:49.009Z,87.52
2019-02-11T06:25:55.111Z,87.79
2019-02-11T06:28:24.693Z,87.84
2019-02-11T06:30:54.165Z,87.83
2019-02-11T06:33:25.369Z,87.92
2019-02-11T06:35:54.832Z,87.79
2019-02-11T06:38:24.278Z,87.88
2019-02-11T06:40:54.230Z,87.80
2019-02-11T06:43:23.726Z,87.80
2019-02-11T06:45:53.267Z,87.74
2019-02-11T06:48:22.830Z,87.60
2019-02-11T06:50:52.398Z,87.40
2019-02-11T06:53:24.308Z,87.37
2019-02-11T06:55:53.909Z,87.33
2019-02-11T06:58:23.320Z,87.40
2019-02-11T07:00:52.741Z,87.49
2019-02-11T07:03:33.613Z,87.18
2019-02-11T07:06:03.376Z,87.43
2019-02-11T07:08:32.851Z,87.46
2019-02-11T07:11:02.464Z,87.40
2019-02-11T07:13:51.177Z,87.45
2019-02-11T07:16:32.461Z,87.24
2019-02-11T07:21:56.763Z,87.22
2019-02-11T07:24:45.080Z,87.51
2019-02-11T07:27:26.013Z,87.72
2019-02-11T07:29:55.871Z,87.87
2019-02-11T07:32:25.264Z,88.07
2019-02-11T07:34:54.812Z,88.17
2019-02-11T07:37:24.199Z,88.35
2019-02-11T07:39:53.612Z,88.22
2019-02-11T07:45:30.065Z,88.22
2019-02-11T07:47:59.086Z,88.21
2019-02-11T07:50:28.479Z,88.00
2019-02-11T07:55:38.910Z,87.48
2019-02-11T08:00:49.492Z,87.46
2019-02-11T08:06:02.874Z,87.10
2019-02-11T08:11:25.785Z,87.10
2019-02-11T08:13:55.204Z,87.41
2019-02-11T08:16:24.647Z,87.47
2019-02-11T08:18:54.230Z,87.81
2019-02-11T08:21:23.703Z,87.75
2019-02-11T08:23:53.152Z,88.00
2019-02-11T08:26:22.784Z,88.29
2019-02-11T08:28:52.285Z,88.18
2019-02-11T08:31:42.562Z,88.18
2019-02-11T08:34:12.371Z,88.14
2019-02-11T08:36:41.889Z,88.18
2019-02-11T08:41:56.656Z,88.60
2019-02-11T08:47:07.685Z,88.28
2019-02-11T08:49:37.119Z,88.31
2019-02-11T08:52:06.531Z,88.41
2019-02-11T08:54:54.786Z,88.44
2019-02-11T09:00:14.925Z,88.42
2019-02-11T09:03:12.467Z,88.04
2019-02-11T09:06:04.114Z,87.93
2019-02-11T09:08:33.703Z,87.81
2019-02-11T09:11:03.205Z,87.08
2019-02-11T09:13:32.623Z,87.18
2019-02-11T09:16:02.027Z,86.50
2019-02-11T09:18:31.438Z,86.47
2019-02-11T09:21:22.247Z,86.63
2019-02-11T09:24:13.151Z,87.15
2019-02-11T09:29:23.202Z,86.99
2019-02-11T09:31:52.662Z,86.79
2019-02-11T09:37:13.330Z,86.82
2019-02-11T09:40:01.783Z,86.40
2019-02-11T09:45:13.687Z,86.16
2019-02-11T09:50:38.080Z,84.67
2019-02-11T09:53:26.671Z,84.43
2019-02-11T09:58:55.871Z,83.95
2019-02-11T10:01:25.309Z,83.56
2019-02-11T10:03:54.739Z,83.09
2019-02-11T10:06:43.443Z,82.60
2019-02-11T10:09:14.461Z,82.60
2019-02-11T10:11:45.959Z,81.85
2019-02-11T10:14:34.459Z,81.51
2019-02-11T10:19:57.555Z,80.86
2019-02-11T10:22:27.001Z,80.56
2019-02-11T10:24:56.377Z,80.54
2019-02-11T10:27:44.827Z,80.34
2019-02-11T10:30:15.120Z,80.83
2019-02-11T10:32:44.539Z,80.51
2019-02-11T10:35:42.065Z,80.29
2019-02-11T10:41:00.150Z,79.96
2019-02-11T10:43:29.714Z,80.00
2019-02-11T10:46:32.672Z,80.37
2019-02-11T10:49:01.012Z,78.97
2019-02-11T10:51:30.696Z,78.40
2019-02-11T10:56:49.058Z,78.87
2019-02-11T10:59:18.982Z,79.15
2019-02-11T11:02:09.441Z,78.16
2019-02-11T11:04:39.261Z,79.24
2019-02-11T11:07:10.776Z,79.24
2019-02-11T11:12:15.359Z,78.27
2019-02-11T11:14:44.919Z,78.38
2019-02-11T11:17:14.369Z,78.38
2019-02-11T11:20:02.859Z,78.61
2019-02-11T11:22:32.325Z,78.61
2019-02-11T11:25:01.766Z,78.90
2019-02-11T11:27:31.198Z,79.06
2019-02-11T11:30:00.610Z,79.20
2019-02-11T11:32:34.349Z,78.11
2019-02-11T11:35:03.827Z,77.35
2019-02-11T11:37:33.238Z,77.37
2019-02-11T11:43:11.573Z,75.18
2019-02-11T11:45:41.458Z,75.08
2019-02-11T11:48:33.724Z,74.82
2019-02-11T11:53:45.710Z,75.32
2019-02-11T11:56:15.192Z,75.49
2019-02-11T11:59:03.817Z,73.97
2019-02-11T12:01:33.255Z,73.97
2019-02-11T12:04:24.602Z,73.13
2019-02-11T12:07:06.330Z,73.13
2019-02-11T12:09:35.806Z,70.83
2019-02-11T12:12:05.228Z,70.03
2019-02-11T12:14:34.717Z,71.14
2019-02-11T12:17:04.199Z,70.17
2019-02-11T12:19:53.702Z,70.30
2019-02-11T12:22:23.224Z,70.30
2019-02-11T12:24:52.801Z,70.09
2019-02-11T12:27:22.335Z,70.04
2019-02-11T12:29:52.266Z,69.77
2019-02-11T12:32:21.877Z,69.45
2019-02-11T12:34:54.139Z,69.15
2019-02-11T12:37:23.630Z,68.75
2019-02-11T12:39:53.053Z,68.16
2019-02-11T12:42:22.490Z,68.32
2019-02-11T12:44:52.251Z,68.43
2019-02-11T12:47:21.711Z,68.04
2019-02-11T12:49:57.909Z,68.35
2019-02-11T12:52:27.594Z,68.39
2019-02-11T12:54:57.029Z,67.37
2019-02-11T12:57:26.691Z,67.08
2019-02-11T12:59:56.103Z,66.72
2019-02-11T13:02:25.582Z,67.15
2019-02-11T13:04:59.704Z,66.53
2019-02-11T13:07:29.174Z,67.27
2019-02-11T13:09:59.156Z,66.71
2019-02-11T13:12:28.570Z,65.83
2019-02-11T13:14:58.589Z,64.76
2019-02-11T13:17:33.788Z,65.08
2019-02-11T13:20:09.094Z,65.04
2019-02-11T13:25:43.438Z,63.30
2019-02-11T13:28:24.808Z,63.30
2019-02-11T13:30:54.386Z,63.45
2019-02-11T13:33:23.821Z,63.83
2019-02-11T13:35:53.365Z,63.68
2019-02-11T13:38:22.869Z,63.46
2019-02-11T13:40:52.442Z,63.22
2019-02-11T13:43:21.926Z,63.22
2019-02-11T13:45:51.640Z,62.24
2019-02-11T13:48:21.321Z,62.28
2019-02-11T13:50:50.966Z,61.75
2019-02-11T13:56:14.771Z,62.04
2019-02-11T13:58:44.341Z,62.04
2019-02-11T14:06:54.021Z,63.11
2019-02-11T14:09:23.478Z,61.90
2019-02-11T14:12:07.217Z,61.84
2019-02-11T14:14:35.831Z,61.84
2019-02-11T14:17:17.163Z,62.14
2019-02-11T14:19:46.729Z,62.05
2019-02-11T14:22:16.159Z,62.39
2019-02-11T14:24:51.474Z,62.34
2019-02-11T14:27:23.002Z,62.13
2019-02-11T14:29:52.478Z,62.67
2019-02-11T14:32:41.176Z,62.38
2019-02-11T14:38:24.316Z,62.15
2019-02-11T14:40:55.393Z,62.25
2019-02-11T14:43:24.895Z,61.63
2019-02-11T14:45:55.143Z,61.56
2019-02-11T14:48:28.154Z,60.27
2019-02-11T14:50:55.990Z,60.93
2019-02-11T14:53:25.491Z,60.31
2019-02-11T14:55:58.354Z,60.38
2019-02-11T14:58:46.868Z,60.09
2019-02-11T15:01:16.787Z,60.09
2019-02-11T15:03:47.863Z,60.61
2019-02-11T15:06:17.466Z,60.12
2019-02-11T15:08:46.893Z,60.63
2019-02-11T15:11:17.717Z,61.32
2019-02-11T15:13:47.225Z,61.93
2019-02-11T15:16:16.678Z,62.52
2019-02-11T15:18:46.093Z,62.64
2019-02-11T15:23:50.723Z,63.00
2019-02-11T15:29:04.001Z,62.96
2019-02-11T15:31:33.416Z,61.84
2019-02-11T15:34:02.924Z,62.02
2019-02-11T15:36:32.368Z,61.63
2019-02-11T15:39:01.900Z,60.98
2019-02-11T15:41:31.714Z,61.36
2019-02-11T15:44:01.320Z,61.20
2019-02-11T15:46:30.722Z,61.70
2019-02-11T15:49:00.149Z,62.19
2019-02-11T15:51:29.743Z,62.84
2019-02-11T15:53:59.245Z,62.69
2019-02-11T15:56:28.692Z,62.84
2019-02-11T15:58:58.287Z,62.98
2019-02-11T16:01:27.710Z,62.59
2019-02-11T16:04:16.234Z,62.72
2019-02-11T16:06:46.099Z,62.72
2019-02-11T16:09:15.528Z,62.99
2019-02-11T16:12:04.161Z,63.23
2019-02-11T16:14:45.210Z,63.23
2019-02-11T16:17:14.696Z,63.23
2019-02-11T16:19:46.996Z,63.63
2019-02-11T16:25:05.168Z,64.10
2019-02-11T16:27:53.707Z,63.50
2019-02-11T16:30:23.237Z,63.86
2019-02-11T16:32:52.681Z,63.86
2019-02-11T16:35:22.244Z,63.18
2019-02-11T16:38:10.736Z,63.53
2019-02-11T16:40:40.275Z,63.50
2019-02-11T16:45:59.541Z,63.22
2019-02-11T16:48:28.955Z,63.67
2019-02-11T16:51:17.532Z,63.31
2019-02-11T16:53:58.432Z,64.06
2019-02-11T16:56:28.188Z,64.06
2019-02-11T16:58:57.706Z,64.87
2019-02-11T17:04:15.701Z,66.07
2019-02-11T17:07:04.807Z,66.83
2019-02-11T17:09:46.087Z,67.11
2019-02-11T17:12:15.556Z,67.11
2019-02-11T17:15:17.348Z,67.33
2019-02-11T17:17:47.031Z,67.33
2019-02-11T17:23:12.014Z,67.65
2019-02-11T17:25:41.707Z,67.66
2019-02-11T17:28:11.315Z,67.79
2019-02-11T17:31:07.241Z,67.77
2019-02-11T17:33:48.392Z,67.58
2019-02-11T17:36:18.541Z,67.58
2019-02-11T17:38:48.130Z,67.63
2019-02-11T17:41:17.779Z,67.60
2019-02-11T17:44:06.367Z,67.12
2019-02-11T17:46:36.013Z,67.12
2019-02-11T17:49:05.651Z,67.19
2019-02-11T17:51:35.169Z,67.01
2019-02-11T17:54:05.244Z,66.60
2019-02-11T17:56:34.677Z,66.42
2019-02-11T17:59:04.752Z,66.17
2019-02-11T18:07:16.621Z,65.42
2019-02-11T18:09:46.199Z,65.42
2019-02-11T18:12:15.767Z,65.07
2019-02-11T18:15:06.148Z,65.07
2019-02-11T18:17:35.682Z,64.98
2019-02-11T18:20:05.552Z,64.92
2019-02-11T18:22:54.102Z,64.85
2019-02-11T18:25:23.815Z,64.85
2019-02-11T18:27:55.003Z,65.74
2019-02-11T18:32:59.053Z,66.93
2019-02-11T18:35:29.099Z,67.75
2019-02-11T18:38:17.458Z,68.37
2019-02-11T18:41:06.259Z,69.59
2019-02-11T18:43:36.509Z,69.59
2019-02-11T18:46:25.461Z,69.70
2019-02-11T18:48:55.057Z,69.70
2019-02-11T18:51:24.636Z,69.93
2019-02-11T18:53:54.359Z,69.99
2019-02-11T18:56:29.047Z,69.60
2019-02-11T18:59:24.413Z,69.65
2019-02-11T19:02:02.362Z,69.65
2019-02-11T19:04:31.865Z,69.28
2019-02-11T19:07:01.348Z,69.02
2019-02-11T19:09:31.290Z,69.02
2019-02-11T19:12:19.721Z,68.91
2019-02-11T19:17:38.529Z,68.35
2019-02-11T19:20:09.132Z,67.94
2019-02-11T19:22:38.819Z,67.53
2019-02-11T19:25:09.250Z,67.53
2019-02-11T19:27:39.164Z,67.45
2019-02-11T19:30:14.947Z,67.33
2019-02-11T19:32:44.890Z,67.18
2019-02-11T19:35:33.507Z,67.28
2019-02-11T19:38:14.470Z,67.26
2019-02-11T19:40:44.182Z,67.26
2019-02-11T19:43:33.040Z,67.43
2019-02-11T19:46:14.702Z,67.43
2019-02-11T19:48:44.396Z,67.12
2019-02-11T19:51:14.271Z,67.52
2019-02-11T19:54:02.861Z,67.08
2019-02-11T19:56:32.800Z,67.08
2019-02-11T19:59:02.323Z,67.88
2019-02-11T20:01:32.463Z,67.94
2019-02-11T20:07:05.936Z,68.12
2019-02-11T20:09:35.466Z,68.10
2019-02-11T20:12:44.387Z,67.98
2019-02-11T20:18:06.447Z,68.29
2019-02-11T20:20:35.929Z,68.56
2019-02-11T20:23:24.620Z,68.90
2019-02-11T20:28:51.868Z,68.98
2019-02-11T20:31:33.932Z,68.78
2019-02-11T20:34:15.229Z,69.09
2019-02-11T20:36:45.220Z,69.09
2019-02-11T20:39:33.799Z,69.53
2019-02-11T20:42:03.469Z,69.53
2019-02-11T20:44:52.093Z,69.71
2019-02-11T20:47:21.832Z,69.70
2019-02-11T20:50:12.130Z,69.70
2019-02-11T20:52:41.769Z,69.77
2019-02-11T20:55:12.490Z,69.80
2019-02-11T21:03:11.890Z,69.74
2019-02-11T21:05:52.658Z,69.86
2019-02-11T21:08:22.641Z,69.86
2019-02-11T21:10:52.570Z,69.95
2019-02-11T21:13:22.297Z,69.91
2019-02-11T21:15:52.917Z,69.46
2019-02-11T21:18:22.680Z,69.46
2019-02-11T21:21:12.589Z,69.52
2019-02-11T21:23:42.003Z,69.52
2019-02-11T21:26:11.734Z,69.80
2019-02-11T21:28:53.568Z,69.80
2019-02-11T21:31:26.098Z,69.79
2019-02-11T21:36:32.490Z,69.69
2019-02-11T21:39:14.078Z,69.84
2019-02-11T21:41:45.592Z,69.99
2019-02-11T21:44:18.751Z,70.00
2019-02-11T21:54:42.438Z,70.65
2019-02-11T21:57:12.025Z,70.85
2019-02-11T21:59:41.584Z,70.93
2019-02-11T22:02:11.350Z,70.99
2019-02-11T22:04:40.996Z,71.20
2019-02-11T22:07:30.025Z,71.48
2019-02-11T22:13:01.986Z,71.73
2019-02-11T22:18:09.935Z,72.05
2019-02-11T22:20:39.891Z,72.22
2019-02-11T22:23:09.306Z,72.22
2019-02-11T22:25:38.993Z,72.45
2019-02-11T22:28:08.346Z,72.35
2019-02-11T22:30:40.933Z,72.41
2019-02-11T22:33:10.557Z,72.49
2019-02-11T22:35:40.304Z,72.64
2019-02-11T22:41:13.890Z,72.74
2019-02-11T22:43:44.051Z,72.63
2019-02-11T22:46:13.661Z,72.72
2019-02-11T22:48:43.259Z,72.70
2019-02-11T22:51:13.213Z,72.61
2019-02-11T22:53:42.825Z,72.66
2019-02-11T22:58:48.659Z,72.69
2019-02-11T23:01:29.846Z,72.82
2019-02-11T23:03:59.662Z,72.90
2019-02-11T23:06:29.273Z,72.97
2019-02-11T23:09:01.432Z,73.10
2019-02-11T23:12:09.179Z,73.43
2019-02-11T23:14:29.912Z,73.43
2019-02-11T23:16:59.744Z,73.41
2019-02-11T23:19:48.373Z,73.57
2019-02-11T23:22:19.806Z,73.60
2019-02-11T23:24:49.583Z,73.71
2019-02-11T23:29:54.265Z,73.83
2019-02-11T23:32:24.244Z,73.82
2019-02-11T23:34:53.994Z,74.10
2019-02-11T23:37:23.764Z,74.26
2019-02-11T23:39:53.506Z,74.37
2019-02-11T23:42:22.919Z,74.39
2019-02-11T23:44:52.694Z,74.46
2019-02-11T23:47:24.945Z,74.71
2019-02-11T23:49:54.520Z,74.78
2019-02-11T23:52:24.264Z,74.87
2019-02-11T23:54:53.969Z,74.90
2019-02-11T23:57:23.519Z,74.91
2019-02-11T23:59:52.980Z,74.96
